createdAt,value
2023-04-26T00:02:18.618Z,89.65
2023-04-26T00:04:47.938Z,88.46
2023-04-26T00:07:15.928Z,89.07
2023-04-26T00:09:44.718Z,90.08
2023-04-26T00:12:13.056Z,89.78
2023-04-26T00:14:40.785Z,88.80
2023-04-26T00:17:08.551Z,89.33
2023-04-26T00:19:38.614Z,87.89
2023-04-26T00:22:06.650Z,89.57
2023-04-26T00:24:34.516Z,89.00
2023-04-26T00:27:05.294Z,88.69
2023-04-26T00:29:33.001Z,89.41
2023-04-26T00:32:00.960Z,90.17
2023-04-26T00:34:33.326Z,90.49
2023-04-26T00:37:02.487Z,90.99
2023-04-26T00:39:30.508Z,89.60
2023-04-26T00:41:58.240Z,89.57
2023-04-26T00:44:26.013Z,90.28
2023-04-26T00:46:54.697Z,90.48
2023-04-26T00:49:25.139Z,91.93
2023-04-26T00:51:53.988Z,90.74
2023-04-26T00:54:23.166Z,90.39
2023-04-26T00:56:53.320Z,89.94
2023-04-26T00:59:21.712Z,90.31
2023-04-26T01:01:49.569Z,91.32
2023-04-26T01:04:17.621Z,91.32
2023-04-26T01:06:46.456Z,91.55
2023-04-26T01:09:15.875Z,91.67
2023-04-26T01:11:46.266Z,91.47
2023-04-26T01:14:15.640Z,91.75
2023-04-26T01:16:47.567Z,93.26
2023-04-26T01:19:16.553Z,94.08
2023-04-26T01:21:46.485Z,93.21
2023-04-26T01:24:16.638Z,93.34
2023-04-26T01:26:47.065Z,93.20
2023-04-26T01:29:16.998Z,92.99
2023-04-26T01:31:45.554Z,93.01
2023-04-26T01:34:13.426Z,92.89
2023-04-26T01:36:41.632Z,91.61
2023-04-26T01:39:09.435Z,91.44
2023-04-26T01:41:38.574Z,92.00
2023-04-26T01:44:06.711Z,91.07
2023-04-26T01:46:34.556Z,93.13
2023-04-26T01:49:02.388Z,93.72
2023-04-26T01:51:31.328Z,93.48
2023-04-26T01:53:59.945Z,93.25
2023-04-26T01:56:27.749Z,92.46
2023-04-26T01:58:57.401Z,92.83
2023-04-26T02:01:25.515Z,94.40
2023-04-26T02:03:53.299Z,94.44
2023-04-26T02:06:21.330Z,94.92
2023-04-26T02:08:49.370Z,92.41
2023-04-26T02:11:17.324Z,93.20
2023-04-26T02:13:45.040Z,94.19
2023-04-26T02:16:16.118Z,95.70
2023-04-26T02:18:44.386Z,95.84
2023-04-26T02:21:13.318Z,95.71
2023-04-26T02:23:41.094Z,96.56
2023-04-26T02:26:11.646Z,95.74
2023-04-26T02:28:39.740Z,95.12
2023-04-26T02:31:07.720Z,95.28
2023-04-26T02:33:36.940Z,94.17
2023-04-26T02:36:05.995Z,92.72
2023-04-26T02:38:35.063Z,94.27
2023-04-26T02:41:05.361Z,94.21
2023-04-26T02:43:34.412Z,94.88
2023-04-26T02:46:02.417Z,94.10
2023-04-26T02:48:31.822Z,94.86
2023-04-26T02:51:01.013Z,94.89
2023-04-26T02:53:28.857Z,94.53
2023-04-26T02:55:56.784Z,93.86
2023-04-26T02:58:24.587Z,93.90
2023-04-26T03:00:54.564Z,94.47
2023-04-26T03:03:23.117Z,94.25
2023-04-26T03:05:51.572Z,94.13
2023-04-26T03:08:20.886Z,93.31
2023-04-26T03:10:48.846Z,94.01
2023-04-26T03:13:16.554Z,93.86
2023-04-26T03:15:45.863Z,93.84
2023-04-26T03:18:13.689Z,92.86
2023-04-26T03:20:41.958Z,93.08
2023-04-26T03:23:10.249Z,92.95
2023-04-26T03:25:39.601Z,93.36
2023-04-26T03:28:07.381Z,93.58
2023-04-26T03:30:35.463Z,94.70
2023-04-26T03:33:03.614Z,92.79
2023-04-26T03:35:31.618Z,91.48
2023-04-26T03:38:00.852Z,92.32
2023-04-26T03:40:28.576Z,92.29
2023-04-26T03:42:58.036Z,92.21
2023-04-26T03:45:26.806Z,92.46
2023-04-26T03:47:54.635Z,92.70
2023-04-26T03:50:22.608Z,93.13
2023-04-26T03:52:50.919Z,94.93
2023-04-26T03:55:18.757Z,94.42
2023-04-26T03:57:47.419Z,95.37
2023-04-26T04:00:17.500Z,92.85
2023-04-26T04:02:45.651Z,93.43
2023-04-26T04:05:22.079Z,92.88
2023-04-26T04:07:49.959Z,92.87
2023-04-26T04:10:17.764Z,94.35
2023-04-26T04:12:46.597Z,91.61
2023-04-26T04:15:14.981Z,94.06
2023-04-26T04:17:48.925Z,92.39
2023-04-26T04:20:16.851Z,92.98
2023-04-26T04:22:44.735Z,93.01
2023-04-26T04:25:13.865Z,94.65
2023-04-26T04:27:43.809Z,92.76
2023-04-26T04:30:12.883Z,92.45
2023-04-26T04:32:44.427Z,93.34
2023-04-26T04:35:14.462Z,92.30
2023-04-26T04:37:43.861Z,93.85
2023-04-26T04:40:13.342Z,92.11
2023-04-26T04:42:44.546Z,92.74
2023-04-26T04:45:12.667Z,93.15
2023-04-26T04:47:40.937Z,96.17
2023-04-26T04:50:09.849Z,95.10
2023-04-26T04:52:39.485Z,94.58
2023-04-26T04:55:07.922Z,94.26
2023-04-26T04:57:41.413Z,93.93
2023-04-26T05:00:12.854Z,94.72
2023-04-26T05:02:47.785Z,95.95
2023-04-26T05:05:17.012Z,96.05
2023-04-26T05:07:46.442Z,96.31
2023-04-26T05:10:15.929Z,95.98
2023-04-26T05:12:43.711Z,96.57
2023-04-26T05:15:11.924Z,97.10
2023-04-26T05:17:40.742Z,96.46
2023-04-26T05:20:17.415Z,96.25
2023-04-26T05:22:47.718Z,98.37
2023-04-26T05:25:17.132Z,99.16
2023-04-26T05:27:47.440Z,99.04
2023-04-26T05:30:32.335Z,99.24
2023-04-26T05:33:18.593Z,99.35
2023-04-26T05:36:21.224Z,96.66
2023-04-26T05:38:49.189Z,99.40
2023-04-26T05:41:17.049Z,99.63
2023-04-26T05:43:44.992Z,98.63
2023-04-26T05:46:13.067Z,98.88
2023-04-26T05:48:41.698Z,98.83
2023-04-26T05:51:09.466Z,99.58
2023-04-26T05:53:38.779Z,99.74
2023-04-26T05:56:07.736Z,99.89
2023-04-26T05:58:35.986Z,99.61
2023-04-26T06:01:04.613Z,99.83
2023-04-26T06:03:32.816Z,100.00
2023-04-26T06:06:01.426Z,99.87
2023-04-26T06:08:29.396Z,99.95
2023-04-26T06:10:58.497Z,100.00
2023-04-26T06:13:28.328Z,100.00
2023-04-26T06:15:56.361Z,100.00
2023-04-26T06:18:24.088Z,100.00
2023-04-26T06:20:52.365Z,100.00
2023-04-26T06:23:20.412Z,98.03
2023-04-26T06:25:48.262Z,98.90
2023-04-26T06:28:17.668Z,100.00
2023-04-26T06:30:45.913Z,99.64
2023-04-26T06:33:13.780Z,97.82
2023-04-26T06:35:41.921Z,97.66
2023-04-26T06:38:12.627Z,98.18
2023-04-26T06:40:40.363Z,98.50
2023-04-26T06:43:09.150Z,97.19
2023-04-26T06:45:38.187Z,97.37
2023-04-26T06:48:07.275Z,97.12
2023-04-26T06:50:38.989Z,95.69
2023-04-26T06:53:07.049Z,99.23
2023-04-26T06:55:35.153Z,97.98
2023-04-26T06:58:02.954Z,95.98
2023-04-26T07:00:30.900Z,95.21
2023-04-26T07:03:00.094Z,93.71
2023-04-26T07:05:27.956Z,95.29
2023-04-26T07:07:55.905Z,92.88
2023-04-26T07:10:23.915Z,93.61
2023-04-26T07:12:51.717Z,93.50
2023-04-26T07:15:19.476Z,92.21
2023-04-26T07:17:47.225Z,90.19
2023-04-26T07:20:19.822Z,89.35
2023-04-26T07:22:47.652Z,89.44
2023-04-26T07:25:15.901Z,91.68
2023-04-26T07:27:43.774Z,89.19
2023-04-26T07:30:12.193Z,90.79
2023-04-26T07:32:39.943Z,90.09
2023-04-26T07:35:10.474Z,89.73
2023-04-26T07:37:39.597Z,88.87
2023-04-26T07:40:10.385Z,85.11
2023-04-26T07:42:38.197Z,86.92
2023-04-26T07:45:06.872Z,85.31
2023-04-26T07:47:34.640Z,82.71
2023-04-26T07:50:02.492Z,82.21
2023-04-26T07:52:30.302Z,82.75
2023-04-26T07:54:59.408Z,82.08
2023-04-26T07:57:27.101Z,80.99
2023-04-26T07:59:54.864Z,82.22
2023-04-26T08:02:32.937Z,82.55
2023-04-26T08:05:10.761Z,85.68
2023-04-26T08:07:38.645Z,89.59
2023-04-26T08:10:08.902Z,82.31
2023-04-26T08:12:38.093Z,78.39
2023-04-26T08:15:06.957Z,80.49
2023-04-26T08:17:34.777Z,81.95
2023-04-26T08:20:04.929Z,82.03
2023-04-26T08:22:32.700Z,82.84
2023-04-26T08:25:00.416Z,83.03
2023-04-26T08:27:29.516Z,82.63
2023-04-26T08:29:57.202Z,81.99
2023-04-26T08:32:24.966Z,79.69
2023-04-26T08:34:52.911Z,78.04
2023-04-26T08:37:20.852Z,78.02
2023-04-26T08:39:48.623Z,78.78
2023-04-26T08:42:18.586Z,78.79
2023-04-26T08:44:47.709Z,75.44
2023-04-26T08:47:19.034Z,73.71
2023-04-26T08:49:50.267Z,70.79
2023-04-26T08:52:22.872Z,70.49
2023-04-26T08:54:52.132Z,78.82
2023-04-26T08:57:21.066Z,76.22
2023-04-26T08:59:51.281Z,74.08
2023-04-26T09:02:21.368Z,73.44
2023-04-26T09:04:50.027Z,71.28
2023-04-26T09:07:22.373Z,70.41
2023-04-26T09:09:51.508Z,73.14
2023-04-26T09:12:21.229Z,74.73
2023-04-26T09:14:50.487Z,67.54
2023-04-26T09:17:28.593Z,70.13
2023-04-26T09:19:56.672Z,66.61
2023-04-26T09:22:32.301Z,66.71
2023-04-26T09:25:00.938Z,65.28
2023-04-26T09:27:34.725Z,64.60
2023-04-26T09:30:08.109Z,62.08
2023-04-26T09:32:46.692Z,60.06
2023-04-26T09:35:31.559Z,61.92
2023-04-26T09:38:08.605Z,61.88
2023-04-26T09:40:41.030Z,63.85
2023-04-26T09:43:09.784Z,63.89
2023-04-26T09:45:47.431Z,62.03
2023-04-26T09:48:17.573Z,58.52
2023-04-26T09:50:46.848Z,59.83
2023-04-26T09:53:27.532Z,60.93
2023-04-26T09:55:55.505Z,64.28
2023-04-26T09:58:23.966Z,60.73
2023-04-26T10:00:54.456Z,60.38
2023-04-26T10:03:24.214Z,58.67
2023-04-26T10:05:52.604Z,58.68
2023-04-26T10:08:20.453Z,58.82
2023-04-26T10:10:49.005Z,58.03
2023-04-26T10:13:17.364Z,55.34
2023-04-26T10:15:45.200Z,59.07
2023-04-26T10:18:14.328Z,57.20
2023-04-26T10:20:45.704Z,54.62
2023-04-26T10:23:26.520Z,55.30
2023-04-26T10:25:55.788Z,54.30
2023-04-26T10:28:57.181Z,55.06
2023-04-26T10:32:06.388Z,54.93
2023-04-26T10:34:37.046Z,56.42
2023-04-26T10:37:09.376Z,59.23
2023-04-26T10:39:37.455Z,57.93
2023-04-26T10:42:26.564Z,53.60
2023-04-26T10:44:55.996Z,55.71
2023-04-26T10:47:27.102Z,54.76
2023-04-26T10:50:05.529Z,54.18
2023-04-26T10:52:34.488Z,52.10
2023-04-26T10:55:02.658Z,51.32
2023-04-26T10:57:50.883Z,49.42
2023-04-26T11:00:31.934Z,50.50
2023-04-26T11:03:05.009Z,49.84
2023-04-26T11:05:56.365Z,49.43
2023-04-26T11:08:28.550Z,49.69
2023-04-26T11:11:11.801Z,51.39
2023-04-26T11:13:41.345Z,50.28
2023-04-26T11:16:11.371Z,50.63
2023-04-26T11:18:40.800Z,49.17
2023-04-26T11:21:10.828Z,49.06
2023-04-26T11:23:38.691Z,47.97
2023-04-26T11:26:08.342Z,49.40
2023-04-26T11:28:37.801Z,50.57
2023-04-26T11:31:07.391Z,50.00
2023-04-26T11:33:35.206Z,49.82
2023-04-26T11:36:03.106Z,48.88
2023-04-26T11:38:32.203Z,47.98
2023-04-26T11:41:01.989Z,48.71
2023-04-26T11:43:36.871Z,50.19
2023-04-26T11:46:05.805Z,51.27
2023-04-26T11:48:35.690Z,50.04
2023-04-26T11:51:05.576Z,51.32
2023-04-26T11:53:38.733Z,49.25
2023-04-26T11:56:15.293Z,48.75
2023-04-26T11:58:45.734Z,49.21
2023-04-26T12:01:13.580Z,50.26
2023-04-26T12:03:41.541Z,52.11
2023-04-26T12:06:09.372Z,51.07
2023-04-26T12:08:38.601Z,51.77
2023-04-26T12:11:06.363Z,52.67
2023-04-26T12:13:34.045Z,51.61
2023-04-26T12:18:37.674Z,50.44
2023-04-26T12:21:06.449Z,50.69
2023-04-26T12:23:41.874Z,48.93
2023-04-26T12:26:12.251Z,49.03
2023-04-26T12:28:40.087Z,50.52
2023-04-26T12:31:08.447Z,48.99
2023-04-26T12:33:36.737Z,49.58
2023-04-26T12:36:09.239Z,50.14
2023-04-26T12:38:37.288Z,51.11
2023-04-26T12:41:07.225Z,49.55
2023-04-26T12:43:35.023Z,47.49
2023-04-26T12:46:02.863Z,47.73
2023-04-26T12:48:30.749Z,46.87
2023-04-26T12:50:58.592Z,44.41
2023-04-26T12:53:26.461Z,45.49
2023-04-26T12:55:54.387Z,46.25
2023-04-26T12:58:23.448Z,46.45
2023-04-26T13:00:51.685Z,45.13
2023-04-26T13:03:19.522Z,46.59
2023-04-26T13:05:47.380Z,44.66
2023-04-26T13:08:15.440Z,45.91
2023-04-26T13:10:43.552Z,44.00
2023-04-26T13:13:11.252Z,41.76
2023-04-26T13:15:41.084Z,40.76
2023-04-26T13:18:08.837Z,41.03
2023-04-26T13:20:36.985Z,42.77
2023-04-26T13:23:04.911Z,37.98
2023-04-26T13:25:32.685Z,37.47
2023-04-26T13:28:00.511Z,37.25
2023-04-26T13:30:28.317Z,38.29
2023-04-26T13:32:59.960Z,36.95
2023-04-26T13:35:28.298Z,38.31
2023-04-26T13:37:56.348Z,37.85
2023-04-26T13:40:24.108Z,36.71
2023-04-26T13:42:52.039Z,37.31
2023-04-26T13:45:20.224Z,37.33
2023-04-26T13:47:48.017Z,37.59
2023-04-26T13:50:17.629Z,37.74
2023-04-26T13:52:45.539Z,38.61
2023-04-26T13:55:14.361Z,39.52
2023-04-26T13:57:42.441Z,39.67
2023-04-26T14:00:11.889Z,39.70
2023-04-26T14:02:42.061Z,39.50
2023-04-26T14:05:10.553Z,39.94
2023-04-26T14:07:40.293Z,40.88
2023-04-26T14:10:09.084Z,40.59
2023-04-26T14:12:37.301Z,40.82
2023-04-26T14:15:06.595Z,40.67
2023-04-26T14:17:34.598Z,41.01
2023-04-26T14:20:02.501Z,41.89
2023-04-26T14:22:30.578Z,42.67
2023-04-26T14:24:59.751Z,43.45
2023-04-26T14:27:27.671Z,43.85
2023-04-26T14:29:55.851Z,43.62
2023-04-26T14:32:24.505Z,43.06
2023-04-26T14:34:52.240Z,42.89
2023-04-26T14:37:22.811Z,42.35
2023-04-26T14:39:51.667Z,42.56
2023-04-26T14:42:21.118Z,42.86
2023-04-26T14:44:48.863Z,40.28
2023-04-26T14:47:16.734Z,41.55
2023-04-26T14:49:44.607Z,40.82
2023-04-26T14:52:12.369Z,40.85
2023-04-26T14:54:40.916Z,41.20
2023-04-26T14:57:09.098Z,40.61
2023-04-26T14:59:38.446Z,40.19
2023-04-26T15:02:06.292Z,41.27
2023-04-26T15:04:34.344Z,40.42
2023-04-26T15:07:02.691Z,39.72
2023-04-26T15:09:30.927Z,41.51
2023-04-26T15:11:58.679Z,43.11
2023-04-26T15:14:26.923Z,41.61
2023-04-26T15:16:56.184Z,40.73
2023-04-26T15:19:24.635Z,42.32
2023-04-26T15:21:52.428Z,41.14
2023-04-26T15:24:20.453Z,42.36
2023-04-26T15:26:48.224Z,42.32
2023-04-26T15:29:18.851Z,40.85
2023-04-26T15:31:46.709Z,42.13
2023-04-26T15:34:16.520Z,42.61
2023-04-26T15:36:44.238Z,42.87
2023-04-26T15:39:12.115Z,43.31
2023-04-26T15:41:39.883Z,42.61
2023-04-26T15:44:07.694Z,39.79
2023-04-26T15:46:37.993Z,40.68
2023-04-26T15:49:06.026Z,41.18
2023-04-26T15:51:35.296Z,41.05
2023-04-26T15:54:03.091Z,39.77
2023-04-26T15:56:30.837Z,41.02
2023-04-26T15:58:58.546Z,40.28
2023-04-26T16:01:26.501Z,40.01
2023-04-26T16:03:54.419Z,40.65
2023-04-26T16:06:22.464Z,39.88
2023-04-26T16:08:51.541Z,39.05
2023-04-26T16:11:19.282Z,39.69
2023-04-26T16:13:51.711Z,38.45
2023-04-26T16:16:19.832Z,40.06
2023-04-26T16:18:47.777Z,41.40
2023-04-26T16:21:16.148Z,40.81
2023-04-26T16:23:43.786Z,40.51
2023-04-26T16:26:13.010Z,38.90
2023-04-26T16:28:40.799Z,38.91
2023-04-26T16:31:08.564Z,37.86
2023-04-26T16:33:36.330Z,41.06
2023-04-26T16:36:04.420Z,42.71
2023-04-26T16:38:32.155Z,43.53
2023-04-26T16:41:01.690Z,42.39
2023-04-26T16:43:32.628Z,44.17
2023-04-26T16:46:02.145Z,44.49
2023-04-26T16:48:31.754Z,42.78
2023-04-26T16:50:59.823Z,42.74
2023-04-26T16:53:27.564Z,41.46
2023-04-26T16:55:55.535Z,44.20
2023-04-26T16:58:24.024Z,43.67
2023-04-26T17:00:53.602Z,42.41
2023-04-26T17:03:22.010Z,42.94
2023-04-26T17:05:50.164Z,43.34
2023-04-26T17:08:19.248Z,45.40
2023-04-26T17:10:47.849Z,48.42
2023-04-26T17:13:15.947Z,49.84
2023-04-26T17:15:44.217Z,50.91
2023-04-26T17:18:13.440Z,47.72
2023-04-26T17:20:41.906Z,51.38
2023-04-26T17:23:09.961Z,49.42
2023-04-26T17:25:37.707Z,49.21
2023-04-26T17:28:05.572Z,47.52
2023-04-26T17:30:33.392Z,46.09
2023-04-26T17:33:01.296Z,47.40
2023-04-26T17:35:30.777Z,46.95
2023-04-26T17:37:58.599Z,48.22
2023-04-26T17:40:26.520Z,49.05
2023-04-26T17:42:54.309Z,47.93
2023-04-26T17:45:22.236Z,47.60
2023-04-26T17:47:50.025Z,50.05
2023-04-26T17:50:20.882Z,48.91
2023-04-26T17:52:50.174Z,48.95
2023-04-26T17:55:18.209Z,50.85
2023-04-26T17:57:46.681Z,49.89
2023-04-26T18:00:15.707Z,47.59
2023-04-26T18:02:43.903Z,49.60
2023-04-26T18:05:13.202Z,48.69
2023-04-26T18:07:40.872Z,49.17
2023-04-26T18:10:10.927Z,49.09
2023-04-26T18:12:38.783Z,49.33
2023-04-26T18:15:07.815Z,49.14
2023-04-26T18:17:36.248Z,48.77
2023-04-26T18:20:04.717Z,49.02
2023-04-26T18:22:32.521Z,50.84
2023-04-26T18:25:00.393Z,48.29
2023-04-26T18:27:29.562Z,49.52
2023-04-26T18:29:57.283Z,48.71
2023-04-26T18:32:25.174Z,49.83
2023-04-26T18:34:53.013Z,48.66
2023-04-26T18:37:20.844Z,50.00
2023-04-26T18:39:49.341Z,50.45
2023-04-26T18:42:17.210Z,49.88
2023-04-26T18:44:46.349Z,49.82
2023-04-26T18:47:17.367Z,50.33
2023-04-26T18:49:45.198Z,50.16
2023-04-26T18:52:13.005Z,51.77
2023-04-26T18:54:44.164Z,50.55
2023-04-26T18:57:12.047Z,51.14
2023-04-26T18:59:39.850Z,52.61
2023-04-26T19:02:09.053Z,51.98
2023-04-26T19:04:37.069Z,51.09
2023-04-26T19:07:04.967Z,51.95
2023-04-26T19:09:42.823Z,52.17
2023-04-26T19:12:18.645Z,51.98
2023-04-26T19:14:46.429Z,52.88
2023-04-26T19:17:15.562Z,51.72
2023-04-26T19:19:43.336Z,53.10
2023-04-26T19:22:11.139Z,53.08
2023-04-26T19:24:38.859Z,52.98
2023-04-26T19:27:06.614Z,53.42
2023-04-26T19:29:34.405Z,52.88
2023-04-26T19:32:04.501Z,53.46
2023-04-26T19:34:34.854Z,54.17
2023-04-26T19:37:03.497Z,53.10
2023-04-26T19:39:31.320Z,53.14
2023-04-26T19:42:01.291Z,52.32
2023-04-26T19:44:29.052Z,53.08
2023-04-26T19:46:56.909Z,54.23
2023-04-26T19:49:25.754Z,53.54
2023-04-26T19:51:55.849Z,53.02
2023-04-26T19:54:24.541Z,53.67
2023-04-26T19:56:52.273Z,53.56
2023-04-26T19:59:20.622Z,52.87
2023-04-26T20:01:48.371Z,53.93
2023-04-26T20:04:16.460Z,53.98
2023-04-26T20:06:44.485Z,53.08
2023-04-26T20:09:13.710Z,53.81
2023-04-26T20:11:41.484Z,54.51
2023-04-26T20:14:09.231Z,54.66
2023-04-26T20:16:37.044Z,54.55
2023-04-26T20:19:05.110Z,54.80
2023-04-26T20:21:33.217Z,54.44
2023-04-26T20:24:00.967Z,53.98
2023-04-26T20:26:30.133Z,54.65
2023-04-26T20:28:57.912Z,53.84
2023-04-26T20:31:25.808Z,55.34
2023-04-26T20:33:53.558Z,55.29
2023-04-26T20:36:21.394Z,55.63
2023-04-26T20:38:49.130Z,54.89
2023-04-26T20:41:16.903Z,55.18
2023-04-26T20:43:46.083Z,56.10
2023-04-26T20:46:13.993Z,57.30
2023-04-26T20:48:42.009Z,56.90
2023-04-26T20:51:09.696Z,56.14
2023-04-26T20:53:37.425Z,57.66
2023-04-26T20:56:05.605Z,57.19
2023-04-26T20:58:33.481Z,57.71
2023-04-26T21:01:04.249Z,55.66
2023-04-26T21:03:34.505Z,57.88
2023-04-26T21:06:02.622Z,57.85
2023-04-26T21:08:30.435Z,57.27
2023-04-26T21:10:58.157Z,57.11
2023-04-26T21:13:26.026Z,56.99
2023-04-26T21:15:53.819Z,57.12
2023-04-26T21:18:22.954Z,57.56
2023-04-26T21:20:50.732Z,59.12
2023-04-26T21:23:18.513Z,59.84
2023-04-26T21:25:47.859Z,60.88
2023-04-26T21:28:15.777Z,60.07
2023-04-26T21:30:43.515Z,59.56
2023-04-26T21:33:12.414Z,59.20
2023-04-26T21:35:41.599Z,60.37
2023-04-26T21:38:09.430Z,62.93
2023-04-26T21:40:37.145Z,61.93
2023-04-26T21:43:05.704Z,64.08
2023-04-26T21:45:33.769Z,65.71
2023-04-26T21:48:01.571Z,63.73
2023-04-26T21:50:29.315Z,66.13
2023-04-26T21:52:58.516Z,65.50
2023-04-26T21:55:26.831Z,66.46
2023-04-26T21:57:54.651Z,67.06
2023-04-26T22:00:22.469Z,67.66
2023-04-26T22:02:51.431Z,67.68
2023-04-26T22:05:19.329Z,68.56
2023-04-26T22:07:47.172Z,67.92
2023-04-26T22:10:16.461Z,67.96
2023-04-26T22:12:44.278Z,66.93
2023-04-26T22:15:12.375Z,67.98
2023-04-26T22:17:40.143Z,67.67
2023-04-26T22:20:09.087Z,68.50
2023-04-26T22:22:36.910Z,67.18
2023-04-26T22:25:05.079Z,69.67
2023-04-26T22:27:34.279Z,67.11
2023-04-26T22:30:12.446Z,65.07
2023-04-26T22:32:52.571Z,66.33
2023-04-26T22:35:20.903Z,66.90
2023-04-26T22:37:48.874Z,65.55
2023-04-26T22:40:17.573Z,66.20
2023-04-26T22:42:46.856Z,69.82
2023-04-26T22:45:14.622Z,63.99
2023-04-26T22:47:42.578Z,66.85
2023-04-26T22:50:11.554Z,65.63
2023-04-26T22:52:39.344Z,65.19
2023-04-26T22:55:08.145Z,66.38
2023-04-26T22:57:36.606Z,65.70
2023-04-26T23:00:09.526Z,69.08
2023-04-26T23:02:37.494Z,70.46
2023-04-26T23:05:08.814Z,69.47
2023-04-26T23:07:36.704Z,70.15
2023-04-26T23:10:05.068Z,70.78
2023-04-26T23:12:33.384Z,66.84
2023-04-26T23:15:01.451Z,66.35
2023-04-26T23:17:32.081Z,67.48
2023-04-26T23:20:00.959Z,68.39
2023-04-26T23:22:28.874Z,67.43
2023-04-26T23:24:56.677Z,67.71
2023-04-26T23:27:24.849Z,71.00
2023-04-26T23:29:52.643Z,71.65
2023-04-26T23:32:20.374Z,72.46
2023-04-26T23:34:50.618Z,73.92
2023-04-26T23:37:18.487Z,74.55
2023-04-26T23:39:46.266Z,73.51
2023-04-26T23:42:14.021Z,75.06
2023-04-26T23:44:42.005Z,73.95
2023-04-26T23:47:10.352Z,75.73
2023-04-26T23:49:38.082Z,77.55
2023-04-26T23:52:07.326Z,76.39
2023-04-26T23:54:35.136Z,76.62
2023-04-26T23:57:04.124Z,76.76
2023-04-26T23:59:32.225Z,78.02
